sensor_id;sensor_type;location;lat;lon;timestamp;P1;durP1;ratioP1;P2;durP2;ratioP2
14734;SDS011;7458;49.002;8.472;2023-02-13T00:02:14;23.75;;;16.73;;
14734;SDS011;7458;49.002;8.472;2023-02-13T00:04:40;21.95;;;18.70;;
14734;SDS011;7458;49.002;8.472;2023-02-13T00:07:09;27.58;;;19.00;;
14734;SDS011;7458;49.002;8.472;2023-02-13T00:09:36;20.58;;;18.13;;
14734;SDS011;7458;49.002;8.472;2023-02-13T00:12:03;27.98;;;19.65;;
14734;SDS011;7458;49.002;8.472;2023-02-13T00:14:33;23.88;;;17.67;;
14734;SDS011;7458;49.002;8.472;2023-02-13T00:17:00;21.00;;;18.85;;
14734;SDS011;7458;49.002;8.472;2023-02-13T00:19:26;28.85;;;19.75;;
14734;SDS011;7458;49.002;8.472;2023-02-13T00:21:52;21.42;;;18.17;;
14734;SDS011;7458;49.002;8.472;2023-02-13T00:24:18;22.20;;;17.65;;
14734;SDS011;7458;49.002;8.472;2023-02-13T00:26:43;21.38;;;17.63;;
14734;SDS011;7458;49.002;8.472;2023-02-13T00:29:09;20.77;;;18.58;;
14734;SDS011;7458;49.002;8.472;2023-02-13T00:31:35;29.48;;;18.70;;
14734;SDS011;7458;49.002;8.472;2023-02-13T00:34:00;25.55;;;18.75;;
14734;SDS011;7458;49.002;8.472;2023-02-13T00:36:26;21.42;;;18.55;;
14734;SDS011;7458;49.002;8.472;2023-02-13T00:38:52;23.95;;;18.25;;
14734;SDS011;7458;49.002;8.472;2023-02-13T00:41:18;28.77;;;17.13;;
14734;SDS011;7458;49.002;8.472;2023-02-13T00:43:45;26.02;;;19.70;;
14734;SDS011;7458;49.002;8.472;2023-02-13T00:46:12;24.52;;;20.25;;
14734;SDS011;7458;49.002;8.472;2023-02-13T00:48:38;26.08;;;20.85;;
14734;SDS011;7458;49.002;8.472;2023-02-13T00:51:04;25.15;;;19.95;;
14734;SDS011;7458;49.002;8.472;2023-02-13T00:53:31;23.75;;;20.23;;
14734;SDS011;7458;49.002;8.472;2023-02-13T00:55:58;19.73;;;17.60;;
14734;SDS011;7458;49.002;8.472;2023-02-13T00:58:24;23.92;;;20.50;;
14734;SDS011;7458;49.002;8.472;2023-02-13T01:00:50;27.20;;;19.25;;
14734;SDS011;7458;49.002;8.472;2023-02-13T01:03:17;27.77;;;20.98;;
14734;SDS011;7458;49.002;8.472;2023-02-13T01:05:44;30.13;;;19.60;;
14734;SDS011;7458;49.002;8.472;2023-02-13T01:08:10;22.73;;;20.30;;
14734;SDS011;7458;49.002;8.472;2023-02-13T01:10:37;21.60;;;19.20;;
14734;SDS011;7458;49.002;8.472;2023-02-13T01:13:05;30.17;;;21.73;;
14734;SDS011;7458;49.002;8.472;2023-02-13T01:15:31;30.38;;;22.17;;
14734;SDS011;7458;49.002;8.472;2023-02-13T01:17:58;28.52;;;22.30;;
14734;SDS011;7458;49.002;8.472;2023-02-13T01:20:25;26.77;;;20.00;;
14734;SDS011;7458;49.002;8.472;2023-02-13T01:22:52;33.90;;;22.58;;
14734;SDS011;7458;49.002;8.472;2023-02-13T01:25:19;26.75;;;23.40;;
14734;SDS011;7458;49.002;8.472;2023-02-13T01:27:45;29.30;;;22.10;;
14734;SDS011;7458;49.002;8.472;2023-02-13T01:30:12;28.33;;;23.63;;
14734;SDS011;7458;49.002;8.472;2023-02-13T01:32:39;27.30;;;21.73;;
14734;SDS011;7458;49.002;8.472;2023-02-13T01:35:07;24.30;;;21.42;;
14734;SDS011;7458;49.002;8.472;2023-02-13T01:37:34;27.17;;;20.88;;
14734;SDS011;7458;49.002;8.472;2023-02-13T01:40:01;29.23;;;22.45;;
14734;SDS011;7458;49.002;8.472;2023-02-13T01:42:29;29.17;;;23.08;;
14734;SDS011;7458;49.002;8.472;2023-02-13T01:44:58;29.75;;;23.55;;
14734;SDS011;7458;49.002;8.472;2023-02-13T01:49:54;27.98;;;22.02;;
14734;SDS011;7458;49.002;8.472;2023-02-13T01:52:33;28.83;;;25.02;;
14734;SDS011;7458;49.002;8.472;2023-02-13T01:55:04;31.17;;;23.08;;
14734;SDS011;7458;49.002;8.472;2023-02-13T01:57:31;33.08;;;24.27;;
14734;SDS011;7458;49.002;8.472;2023-02-13T02:00:02;28.08;;;20.60;;
14734;SDS011;7458;49.002;8.472;2023-02-13T02:02:35;30.02;;;22.27;;
14734;SDS011;7458;49.002;8.472;2023-02-13T02:05:07;35.08;;;24.90;;
14734;SDS011;7458;49.002;8.472;2023-02-13T02:07:34;34.60;;;22.65;;
14734;SDS011;7458;49.002;8.472;2023-02-13T02:10:04;30.20;;;22.85;;
14734;SDS011;7458;49.002;8.472;2023-02-13T02:12:41;26.45;;;22.05;;
14734;SDS011;7458;49.002;8.472;2023-02-13T02:15:14;36.67;;;24.63;;
14734;SDS011;7458;49.002;8.472;2023-02-13T02:17:40;33.65;;;23.35;;
14734;SDS011;7458;49.002;8.472;2023-02-13T02:32:23;33.72;;;25.25;;
14734;SDS011;7458;49.002;8.472;2023-02-13T02:41:13;32.90;;;23.45;;
14734;SDS011;7458;49.002;8.472;2023-02-13T02:44:11;32.55;;;23.13;;
14734;SDS011;7458;49.002;8.472;2023-02-13T02:50:11;28.55;;;23.80;;
14734;SDS011;7458;49.002;8.472;2023-02-13T02:52:54;31.33;;;23.90;;
14734;SDS011;7458;49.002;8.472;2023-02-13T03:01:15;30.25;;;24.02;;
14734;SDS011;7458;49.002;8.472;2023-02-13T03:04:04;29.83;;;24.63;;
14734;SDS011;7458;49.002;8.472;2023-02-13T03:06:53;28.65;;;22.20;;
14734;SDS011;7458;49.002;8.472;2023-02-13T03:09:27;27.90;;;24.63;;
14734;SDS011;7458;49.002;8.472;2023-02-13T03:12:19;29.23;;;23.60;;
14734;SDS011;7458;49.002;8.472;2023-02-13T03:15:09;31.88;;;24.67;;
14734;SDS011;7458;49.002;8.472;2023-02-13T03:17:35;31.27;;;24.02;;
14734;SDS011;7458;49.002;8.472;2023-02-13T03:23:47;27.88;;;23.02;;
14734;SDS011;7458;49.002;8.472;2023-02-13T03:29:31;32.63;;;24.73;;
14734;SDS011;7458;49.002;8.472;2023-02-13T03:35:14;35.60;;;25.73;;
14734;SDS011;7458;49.002;8.472;2023-02-13T03:38:27;33.28;;;27.90;;
14734;SDS011;7458;49.002;8.472;2023-02-13T03:41:43;28.95;;;24.05;;
14734;SDS011;7458;49.002;8.472;2023-02-13T03:44:24;30.95;;;25.92;;
14734;SDS011;7458;49.002;8.472;2023-02-13T03:47:35;32.70;;;26.42;;
14734;SDS011;7458;49.002;8.472;2023-02-13T03:50:03;39.40;;;28.88;;
14734;SDS011;7458;49.002;8.472;2023-02-13T03:52:38;31.83;;;26.35;;
14734;SDS011;7458;49.002;8.472;2023-02-13T03:55:29;32.20;;;26.30;;
14734;SDS011;7458;49.002;8.472;2023-02-13T03:58:25;33.15;;;25.42;;
14734;SDS011;7458;49.002;8.472;2023-02-13T04:01:26;32.63;;;22.33;;
14734;SDS011;7458;49.002;8.472;2023-02-13T04:03:58;27.83;;;24.83;;
14734;SDS011;7458;49.002;8.472;2023-02-13T04:06:41;28.50;;;24.30;;
14734;SDS011;7458;49.002;8.472;2023-02-13T04:09:20;33.03;;;25.42;;
14734;SDS011;7458;49.002;8.472;2023-02-13T04:14:47;27.08;;;23.48;;
14734;SDS011;7458;49.002;8.472;2023-02-13T04:17:23;29.35;;;24.15;;
14734;SDS011;7458;49.002;8.472;2023-02-13T04:19:58;28.58;;;23.95;;
14734;SDS011;7458;49.002;8.472;2023-02-13T04:22:24;32.22;;;26.58;;
14734;SDS011;7458;49.002;8.472;2023-02-13T04:24:50;36.30;;;26.23;;
14734;SDS011;7458;49.002;8.472;2023-02-13T04:27:15;30.10;;;25.02;;
14734;SDS011;7458;49.002;8.472;2023-02-13T04:29:42;41.70;;;26.83;;
14734;SDS011;7458;49.002;8.472;2023-02-13T04:32:09;32.67;;;25.15;;
14734;SDS011;7458;49.002;8.472;2023-02-13T04:34:36;32.38;;;25.33;;
14734;SDS011;7458;49.002;8.472;2023-02-13T04:37:02;32.47;;;24.67;;
14734;SDS011;7458;49.002;8.472;2023-02-13T04:39:28;30.85;;;25.42;;
14734;SDS011;7458;49.002;8.472;2023-02-13T04:41:53;33.58;;;26.58;;
14734;SDS011;7458;49.002;8.472;2023-02-13T04:44:19;35.75;;;26.08;;
14734;SDS011;7458;49.002;8.472;2023-02-13T04:46:45;30.27;;;27.00;;
14734;SDS011;7458;49.002;8.472;2023-02-13T04:49:10;34.38;;;27.15;;
14734;SDS011;7458;49.002;8.472;2023-02-13T04:51:36;32.63;;;26.05;;
14734;SDS011;7458;49.002;8.472;2023-02-13T04:54:02;39.53;;;26.50;;
14734;SDS011;7458;49.002;8.472;2023-02-13T04:56:27;31.38;;;25.23;;
14734;SDS011;7458;49.002;8.472;2023-02-13T04:58:53;31.42;;;24.92;;
14734;SDS011;7458;49.002;8.472;2023-02-13T05:01:19;30.60;;;26.40;;
14734;SDS011;7458;49.002;8.472;2023-02-13T05:03:46;30.85;;;24.67;;
14734;SDS011;7458;49.002;8.472;2023-02-13T05:06:12;32.67;;;26.30;;
14734;SDS011;7458;49.002;8.472;2023-02-13T05:08:38;34.60;;;27.38;;
14734;SDS011;7458;49.002;8.472;2023-02-13T05:11:04;28.73;;;25.48;;
14734;SDS011;7458;49.002;8.472;2023-02-13T05:13:31;32.70;;;27.00;;
14734;SDS011;7458;49.002;8.472;2023-02-13T05:15:57;31.80;;;24.75;;
14734;SDS011;7458;49.002;8.472;2023-02-13T05:18:23;34.10;;;27.10;;
14734;SDS011;7458;49.002;8.472;2023-02-13T05:20:49;27.92;;;24.05;;
14734;SDS011;7458;49.002;8.472;2023-02-13T05:23:34;30.50;;;25.40;;
14734;SDS011;7458;49.002;8.472;2023-02-13T05:26:01;33.30;;;26.70;;
14734;SDS011;7458;49.002;8.472;2023-02-13T05:28:27;34.63;;;26.92;;
14734;SDS011;7458;49.002;8.472;2023-02-13T05:31:11;31.48;;;24.98;;
14734;SDS011;7458;49.002;8.472;2023-02-13T05:33:37;35.40;;;25.77;;
14734;SDS011;7458;49.002;8.472;2023-02-13T05:36:03;29.42;;;24.80;;
14734;SDS011;7458;49.002;8.472;2023-02-13T05:38:29;36.47;;;26.23;;
14734;SDS011;7458;49.002;8.472;2023-02-13T05:40:57;26.15;;;19.92;;
14734;SDS011;7458;49.002;8.472;2023-02-13T05:43:24;33.70;;;26.25;;
14734;SDS011;7458;49.002;8.472;2023-02-13T05:45:59;41.28;;;29.05;;
14734;SDS011;7458;49.002;8.472;2023-02-13T05:48:27;31.48;;;27.17;;
14734;SDS011;7458;49.002;8.472;2023-02-13T05:50:52;28.17;;;24.08;;
14734;SDS011;7458;49.002;8.472;2023-02-13T05:53:18;34.78;;;26.75;;
14734;SDS011;7458;49.002;8.472;2023-02-13T05:55:44;28.73;;;24.38;;
14734;SDS011;7458;49.002;8.472;2023-02-13T05:58:10;31.83;;;24.52;;
14734;SDS011;7458;49.002;8.472;2023-02-13T06:00:36;34.40;;;25.17;;
14734;SDS011;7458;49.002;8.472;2023-02-13T06:03:02;34.92;;;25.60;;
14734;SDS011;7458;49.002;8.472;2023-02-13T06:05:27;34.75;;;26.17;;
14734;SDS011;7458;49.002;8.472;2023-02-13T06:07:53;38.10;;;27.40;;
14734;SDS011;7458;49.002;8.472;2023-02-13T06:10:19;38.30;;;26.92;;
14734;SDS011;7458;49.002;8.472;2023-02-13T06:12:44;35.08;;;26.35;;
14734;SDS011;7458;49.002;8.472;2023-02-13T06:15:10;40.72;;;25.80;;
14734;SDS011;7458;49.002;8.472;2023-02-13T06:17:36;33.78;;;25.00;;
14734;SDS011;7458;49.002;8.472;2023-02-13T06:20:02;38.50;;;26.55;;
14734;SDS011;7458;49.002;8.472;2023-02-13T06:22:28;36.65;;;28.23;;
14734;SDS011;7458;49.002;8.472;2023-02-13T06:24:53;37.03;;;26.50;;
14734;SDS011;7458;49.002;8.472;2023-02-13T06:27:19;31.20;;;25.98;;
14734;SDS011;7458;49.002;8.472;2023-02-13T06:29:45;31.77;;;25.98;;
14734;SDS011;7458;49.002;8.472;2023-02-13T06:32:12;30.80;;;26.38;;
14734;SDS011;7458;49.002;8.472;2023-02-13T06:34:38;37.95;;;26.77;;
14734;SDS011;7458;49.002;8.472;2023-02-13T06:37:04;29.70;;;24.73;;
14734;SDS011;7458;49.002;8.472;2023-02-13T06:39:29;34.80;;;25.88;;
14734;SDS011;7458;49.002;8.472;2023-02-13T06:41:55;37.30;;;26.08;;
14734;SDS011;7458;49.002;8.472;2023-02-13T06:44:20;34.47;;;26.52;;
14734;SDS011;7458;49.002;8.472;2023-02-13T06:46:46;33.03;;;25.80;;
14734;SDS011;7458;49.002;8.472;2023-02-13T06:49:12;34.92;;;24.95;;
14734;SDS011;7458;49.002;8.472;2023-02-13T06:51:37;32.97;;;27.20;;
14734;SDS011;7458;49.002;8.472;2023-02-13T06:54:03;36.67;;;28.60;;
14734;SDS011;7458;49.002;8.472;2023-02-13T06:56:29;34.10;;;25.80;;
14734;SDS011;7458;49.002;8.472;2023-02-13T06:58:55;34.08;;;25.45;;
14734;SDS011;7458;49.002;8.472;2023-02-13T07:01:21;29.17;;;25.27;;
14734;SDS011;7458;49.002;8.472;2023-02-13T07:03:46;39.08;;;31.02;;
14734;SDS011;7458;49.002;8.472;2023-02-13T07:06:16;34.85;;;30.95;;
14734;SDS011;7458;49.002;8.472;2023-02-13T07:08:45;39.42;;;29.92;;
14734;SDS011;7458;49.002;8.472;2023-02-13T07:11:18;34.63;;;26.58;;
14734;SDS011;7458;49.002;8.472;2023-02-13T07:13:46;43.90;;;31.83;;
14734;SDS011;7458;49.002;8.472;2023-02-13T07:16:11;34.65;;;28.33;;
14734;SDS011;7458;49.002;8.472;2023-02-13T07:18:37;35.85;;;27.65;;
14734;SDS011;7458;49.002;8.472;2023-02-13T07:21:03;35.70;;;27.00;;
14734;SDS011;7458;49.002;8.472;2023-02-13T07:23:29;34.25;;;28.80;;
14734;SDS011;7458;49.002;8.472;2023-02-13T07:25:57;39.75;;;30.80;;
14734;SDS011;7458;49.002;8.472;2023-02-13T07:28:24;37.28;;;31.38;;
14734;SDS011;7458;49.002;8.472;2023-02-13T07:30:51;32.30;;;28.90;;
14734;SDS011;7458;49.002;8.472;2023-02-13T07:33:16;37.53;;;29.02;;
14734;SDS011;7458;49.002;8.472;2023-02-13T07:35:49;37.00;;;27.65;;
14734;SDS011;7458;49.002;8.472;2023-02-13T07:38:16;34.45;;;29.13;;
14734;SDS011;7458;49.002;8.472;2023-02-13T07:40:43;32.40;;;25.23;;
14734;SDS011;7458;49.002;8.472;2023-02-13T07:43:09;35.75;;;27.40;;
14734;SDS011;7458;49.002;8.472;2023-02-13T07:45:38;34.53;;;25.40;;
14734;SDS011;7458;49.002;8.472;2023-02-13T07:48:04;32.85;;;23.45;;
14734;SDS011;7458;49.002;8.472;2023-02-13T07:50:30;35.97;;;26.65;;
14734;SDS011;7458;49.002;8.472;2023-02-13T07:52:56;32.25;;;27.98;;
14734;SDS011;7458;49.002;8.472;2023-02-13T07:55:25;32.85;;;24.65;;
14734;SDS011;7458;49.002;8.472;2023-02-13T07:57:52;36.83;;;25.60;;
14734;SDS011;7458;49.002;8.472;2023-02-13T08:00:19;33.65;;;23.77;;
14734;SDS011;7458;49.002;8.472;2023-02-13T08:02:46;28.17;;;24.90;;
14734;SDS011;7458;49.002;8.472;2023-02-13T08:05:12;30.02;;;25.45;;
14734;SDS011;7458;49.002;8.472;2023-02-13T08:07:37;33.58;;;24.40;;
14734;SDS011;7458;49.002;8.472;2023-02-13T08:10:05;36.55;;;27.10;;
14734;SDS011;7458;49.002;8.472;2023-02-13T08:12:52;34.08;;;27.27;;
14734;SDS011;7458;49.002;8.472;2023-02-13T08:15:18;36.47;;;26.52;;
14734;SDS011;7458;49.002;8.472;2023-02-13T08:17:44;36.97;;;24.85;;
14734;SDS011;7458;49.002;8.472;2023-02-13T08:20:10;37.75;;;27.52;;
14734;SDS011;7458;49.002;8.472;2023-02-13T08:22:36;37.05;;;27.60;;
14734;SDS011;7458;49.002;8.472;2023-02-13T08:25:04;38.78;;;25.55;;
14734;SDS011;7458;49.002;8.472;2023-02-13T08:27:31;34.83;;;23.75;;
14734;SDS011;7458;49.002;8.472;2023-02-13T08:29:57;31.80;;;26.48;;
14734;SDS011;7458;49.002;8.472;2023-02-13T08:32:24;29.63;;;23.98;;
14734;SDS011;7458;49.002;8.472;2023-02-13T08:34:50;27.85;;;24.23;;
14734;SDS011;7458;49.002;8.472;2023-02-13T08:37:16;34.17;;;23.95;;
14734;SDS011;7458;49.002;8.472;2023-02-13T08:39:42;29.83;;;24.25;;
14734;SDS011;7458;49.002;8.472;2023-02-13T08:42:08;31.17;;;23.77;;
14734;SDS011;7458;49.002;8.472;2023-02-13T08:44:34;31.48;;;23.70;;
14734;SDS011;7458;49.002;8.472;2023-02-13T08:47:01;29.90;;;22.50;;
14734;SDS011;7458;49.002;8.472;2023-02-13T08:49:30;30.70;;;23.42;;
14734;SDS011;7458;49.002;8.472;2023-02-13T08:51:56;36.15;;;22.55;;
14734;SDS011;7458;49.002;8.472;2023-02-13T08:54:22;27.08;;;21.08;;
14734;SDS011;7458;49.002;8.472;2023-02-13T08:56:47;29.98;;;20.95;;
14734;SDS011;7458;49.002;8.472;2023-02-13T08:59:13;25.02;;;19.38;;
14734;SDS011;7458;49.002;8.472;2023-02-13T09:01:39;26.17;;;18.55;;
14734;SDS011;7458;49.002;8.472;2023-02-13T09:04:05;20.33;;;18.15;;
14734;SDS011;7458;49.002;8.472;2023-02-13T09:06:30;25.95;;;21.30;;
14734;SDS011;7458;49.002;8.472;2023-02-13T09:08:56;25.20;;;19.70;;
14734;SDS011;7458;49.002;8.472;2023-02-13T09:11:21;21.60;;;19.23;;
14734;SDS011;7458;49.002;8.472;2023-02-13T09:13:48;23.73;;;19.95;;
14734;SDS011;7458;49.002;8.472;2023-02-13T09:16:17;26.63;;;18.95;;
14734;SDS011;7458;49.002;8.472;2023-02-13T09:18:42;24.30;;;18.15;;
14734;SDS011;7458;49.002;8.472;2023-02-13T09:21:12;21.85;;;17.27;;
14734;SDS011;7458;49.002;8.472;2023-02-13T09:23:39;21.20;;;18.10;;
14734;SDS011;7458;49.002;8.472;2023-02-13T09:26:06;25.17;;;19.48;;
14734;SDS011;7458;49.002;8.472;2023-02-13T09:28:36;23.45;;;18.35;;
14734;SDS011;7458;49.002;8.472;2023-02-13T09:31:07;31.95;;;19.38;;
14734;SDS011;7458;49.002;8.472;2023-02-13T09:33:39;23.15;;;20.58;;
14734;SDS011;7458;49.002;8.472;2023-02-13T09:36:09;23.20;;;19.83;;
14734;SDS011;7458;49.002;8.472;2023-02-13T09:38:43;27.20;;;19.13;;
14734;SDS011;7458;49.002;8.472;2023-02-13T09:41:13;27.33;;;19.05;;
14734;SDS011;7458;49.002;8.472;2023-02-13T09:43:56;28.08;;;20.05;;
14734;SDS011;7458;49.002;8.472;2023-02-13T09:46:28;25.17;;;19.52;;
14734;SDS011;7458;49.002;8.472;2023-02-13T09:49:06;22.65;;;18.95;;
14734;SDS011;7458;49.002;8.472;2023-02-13T09:51:41;20.63;;;16.85;;
14734;SDS011;7458;49.002;8.472;2023-02-13T09:54:14;23.42;;;18.33;;
14734;SDS011;7458;49.002;8.472;2023-02-13T09:56:50;22.38;;;17.88;;
14734;SDS011;7458;49.002;8.472;2023-02-13T10:01:59;22.17;;;17.63;;
14734;SDS011;7458;49.002;8.472;2023-02-13T10:07:54;23.15;;;19.58;;
14734;SDS011;7458;49.002;8.472;2023-02-13T10:11:02;22.90;;;18.83;;
14734;SDS011;7458;49.002;8.472;2023-02-13T10:16:50;26.75;;;21.92;;
14734;SDS011;7458;49.002;8.472;2023-02-13T10:19:30;26.85;;;21.63;;
14734;SDS011;7458;49.002;8.472;2023-02-13T10:25:03;26.67;;;20.38;;
14734;SDS011;7458;49.002;8.472;2023-02-13T10:27:54;23.52;;;20.98;;
14734;SDS011;7458;49.002;8.472;2023-02-13T10:30:48;28.50;;;22.35;;
14734;SDS011;7458;49.002;8.472;2023-02-13T10:33:27;26.67;;;21.95;;
14734;SDS011;7458;49.002;8.472;2023-02-13T10:36:04;26.83;;;22.17;;
14734;SDS011;7458;49.002;8.472;2023-02-13T10:38:37;25.58;;;21.13;;
14734;SDS011;7458;49.002;8.472;2023-02-13T10:53:03;33.80;;;23.67;;
14734;SDS011;7458;49.002;8.472;2023-02-13T10:55:59;30.80;;;24.95;;
14734;SDS011;7458;49.002;8.472;2023-02-13T11:04:33;25.15;;;22.55;;
14734;SDS011;7458;49.002;8.472;2023-02-13T11:06:59;29.75;;;22.85;;
14734;SDS011;7458;49.002;8.472;2023-02-13T11:09:28;27.95;;;20.67;;
14734;SDS011;7458;49.002;8.472;2023-02-13T11:14:54;28.30;;;20.83;;
14734;SDS011;7458;49.002;8.472;2023-02-13T11:17:24;22.88;;;20.20;;
14734;SDS011;7458;49.002;8.472;2023-02-13T11:19:54;32.20;;;21.88;;
14734;SDS011;7458;49.002;8.472;2023-02-13T11:22:26;34.88;;;23.55;;
14734;SDS011;7458;49.002;8.472;2023-02-13T11:25:01;28.05;;;23.05;;
14734;SDS011;7458;49.002;8.472;2023-02-13T11:27:33;28.67;;;21.77;;
14734;SDS011;7458;49.002;8.472;2023-02-13T11:30:06;24.02;;;20.58;;
14734;SDS011;7458;49.002;8.472;2023-02-13T11:33:00;25.40;;;19.33;;
14734;SDS011;7458;49.002;8.472;2023-02-13T11:35:44;25.80;;;20.23;;
14734;SDS011;7458;49.002;8.472;2023-02-13T11:40:40;23.77;;;20.35;;
14734;SDS011;7458;49.002;8.472;2023-02-13T11:48:38;22.65;;;19.50;;
14734;SDS011;7458;49.002;8.472;2023-02-13T11:51:04;24.98;;;19.88;;
14734;SDS011;7458;49.002;8.472;2023-02-13T11:53:30;25.75;;;22.23;;
14734;SDS011;7458;49.002;8.472;2023-02-13T11:58:37;25.08;;;19.67;;
14734;SDS011;7458;49.002;8.472;2023-02-13T12:07:04;26.67;;;21.17;;
14734;SDS011;7458;49.002;8.472;2023-02-13T12:12:43;23.88;;;20.95;;
14734;SDS011;7458;49.002;8.472;2023-02-13T12:15:23;26.48;;;20.40;;
14734;SDS011;7458;49.002;8.472;2023-02-13T12:18:37;24.38;;;20.95;;
14734;SDS011;7458;49.002;8.472;2023-02-13T12:26:47;24.38;;;21.27;;
14734;SDS011;7458;49.002;8.472;2023-02-13T12:29:43;28.92;;;20.23;;
14734;SDS011;7458;49.002;8.472;2023-02-13T12:32:47;27.15;;;21.50;;
14734;SDS011;7458;49.002;8.472;2023-02-13T12:38:38;31.67;;;21.73;;
14734;SDS011;7458;49.002;8.472;2023-02-13T12:41:47;25.85;;;20.02;;
14734;SDS011;7458;49.002;8.472;2023-02-13T12:47:07;21.20;;;18.00;;
14734;SDS011;7458;49.002;8.472;2023-02-13T13:01:39;23.40;;;20.08;;
14734;SDS011;7458;49.002;8.472;2023-02-13T13:10:46;25.73;;;22.75;;
14734;SDS011;7458;49.002;8.472;2023-02-13T13:16:28;23.05;;;20.05;;
14734;SDS011;7458;49.002;8.472;2023-02-13T13:19:39;22.20;;;18.05;;
14734;SDS011;7458;49.002;8.472;2023-02-13T13:28:21;28.05;;;20.23;;
14734;SDS011;7458;49.002;8.472;2023-02-13T13:30:56;26.95;;;20.77;;
14734;SDS011;7458;49.002;8.472;2023-02-13T13:33:24;23.35;;;19.95;;
14734;SDS011;7458;49.002;8.472;2023-02-13T13:38:36;28.45;;;20.90;;
14734;SDS011;7458;49.002;8.472;2023-02-13T13:47:39;24.67;;;19.75;;
14734;SDS011;7458;49.002;8.472;2023-02-13T13:50:42;26.80;;;20.00;;
14734;SDS011;7458;49.002;8.472;2023-02-13T13:53:11;26.35;;;19.75;;
14734;SDS011;7458;49.002;8.472;2023-02-13T14:11:53;19.15;;;16.25;;
14734;SDS011;7458;49.002;8.472;2023-02-13T14:16:53;26.73;;;21.15;;
14734;SDS011;7458;49.002;8.472;2023-02-13T14:19:23;29.02;;;21.63;;
14734;SDS011;7458;49.002;8.472;2023-02-13T14:24:55;26.63;;;22.33;;
14734;SDS011;7458;49.002;8.472;2023-02-13T14:27:31;30.02;;;26.33;;
14734;SDS011;7458;49.002;8.472;2023-02-13T14:32:46;28.42;;;23.55;;
14734;SDS011;7458;49.002;8.472;2023-02-13T14:35:28;34.22;;;23.20;;
14734;SDS011;7458;49.002;8.472;2023-02-13T14:38:01;30.77;;;26.23;;
14734;SDS011;7458;49.002;8.472;2023-02-13T14:40:46;26.38;;;21.73;;
14734;SDS011;7458;49.002;8.472;2023-02-13T14:43:30;29.85;;;23.20;;
14734;SDS011;7458;49.002;8.472;2023-02-13T14:46:06;33.63;;;26.08;;
14734;SDS011;7458;49.002;8.472;2023-02-13T14:48:58;38.22;;;26.40;;
14734;SDS011;7458;49.002;8.472;2023-02-13T14:51:38;29.58;;;24.25;;
14734;SDS011;7458;49.002;8.472;2023-02-13T14:54:18;38.15;;;26.67;;
14734;SDS011;7458;49.002;8.472;2023-02-13T14:56:58;33.38;;;24.58;;
14734;SDS011;7458;49.002;8.472;2023-02-13T14:59:42;29.27;;;23.15;;
14734;SDS011;7458;49.002;8.472;2023-02-13T15:04:52;33.15;;;26.13;;
14734;SDS011;7458;49.002;8.472;2023-02-13T15:07:28;34.13;;;28.13;;
14734;SDS011;7458;49.002;8.472;2023-02-13T15:12:58;31.42;;;25.73;;
14734;SDS011;7458;49.002;8.472;2023-02-13T15:15:28;28.58;;;23.73;;
14734;SDS011;7458;49.002;8.472;2023-02-13T15:17:58;35.17;;;24.98;;
14734;SDS011;7458;49.002;8.472;2023-02-13T15:20:36;31.25;;;23.20;;
14734;SDS011;7458;49.002;8.472;2023-02-13T15:23:05;32.58;;;25.02;;
14734;SDS011;7458;49.002;8.472;2023-02-13T15:25:35;35.53;;;25.48;;
14734;SDS011;7458;49.002;8.472;2023-02-13T15:28:04;31.30;;;26.08;;
14734;SDS011;7458;49.002;8.472;2023-02-13T15:30:39;32.88;;;25.77;;
14734;SDS011;7458;49.002;8.472;2023-02-13T15:33:15;37.80;;;28.20;;
14734;SDS011;7458;49.002;8.472;2023-02-13T15:35:53;32.05;;;24.52;;
14734;SDS011;7458;49.002;8.472;2023-02-13T15:38:25;36.92;;;26.50;;
14734;SDS011;7458;49.002;8.472;2023-02-13T15:41:16;30.38;;;26.10;;
14734;SDS011;7458;49.002;8.472;2023-02-13T15:43:57;31.83;;;25.70;;
14734;SDS011;7458;49.002;8.472;2023-02-13T15:46:25;32.60;;;27.17;;
14734;SDS011;7458;49.002;8.472;2023-02-13T15:49:00;33.53;;;26.23;;
14734;SDS011;7458;49.002;8.472;2023-02-13T15:51:31;34.80;;;25.88;;
14734;SDS011;7458;49.002;8.472;2023-02-13T15:54:03;32.97;;;25.15;;
14734;SDS011;7458;49.002;8.472;2023-02-13T15:56:32;27.67;;;24.45;;
14734;SDS011;7458;49.002;8.472;2023-02-13T15:58:59;30.95;;;24.38;;
14734;SDS011;7458;49.002;8.472;2023-02-13T16:01:27;34.20;;;25.40;;
14734;SDS011;7458;49.002;8.472;2023-02-13T16:03:59;28.88;;;23.13;;
14734;SDS011;7458;49.002;8.472;2023-02-13T16:06:30;33.22;;;27.48;;
14734;SDS011;7458;49.002;8.472;2023-02-13T16:08:58;34.60;;;25.65;;
14734;SDS011;7458;49.002;8.472;2023-02-13T16:13:58;34.35;;;27.70;;
14734;SDS011;7458;49.002;8.472;2023-02-13T16:16:49;34.17;;;27.13;;
14734;SDS011;7458;49.002;8.472;2023-02-13T16:22:02;34.17;;;25.67;;
14734;SDS011;7458;49.002;8.472;2023-02-13T16:24:48;36.35;;;27.58;;
14734;SDS011;7458;49.002;8.472;2023-02-13T16:27:18;30.42;;;25.90;;
14734;SDS011;7458;49.002;8.472;2023-02-13T16:29:55;34.75;;;26.95;;
14734;SDS011;7458;49.002;8.472;2023-02-13T16:32:28;33.45;;;26.98;;
14734;SDS011;7458;49.002;8.472;2023-02-13T16:35:23;35.55;;;26.98;;
14734;SDS011;7458;49.002;8.472;2023-02-13T16:37:58;35.47;;;26.80;;
14734;SDS011;7458;49.002;8.472;2023-02-13T16:43:31;39.97;;;28.20;;
14734;SDS011;7458;49.002;8.472;2023-02-13T16:53:57;37.25;;;27.70;;
14734;SDS011;7458;49.002;8.472;2023-02-13T16:59:31;37.60;;;30.90;;
14734;SDS011;7458;49.002;8.472;2023-02-13T17:02:11;37.33;;;27.23;;
14734;SDS011;7458;49.002;8.472;2023-02-13T17:07:34;34.23;;;27.27;;
14734;SDS011;7458;49.002;8.472;2023-02-13T17:10:19;36.17;;;29.70;;
14734;SDS011;7458;49.002;8.472;2023-02-13T17:12:51;35.30;;;28.50;;
14734;SDS011;7458;49.002;8.472;2023-02-13T17:15:22;31.83;;;26.65;;
14734;SDS011;7458;49.002;8.472;2023-02-13T17:17:50;41.13;;;29.73;;
14734;SDS011;7458;49.002;8.472;2023-02-13T17:20:19;38.75;;;30.08;;
14734;SDS011;7458;49.002;8.472;2023-02-13T17:22:50;40.80;;;30.45;;
14734;SDS011;7458;49.002;8.472;2023-02-13T17:25:20;39.10;;;29.85;;
14734;SDS011;7458;49.002;8.472;2023-02-13T17:27:49;40.22;;;29.38;;
14734;SDS011;7458;49.002;8.472;2023-02-13T17:30:23;40.03;;;28.95;;
14734;SDS011;7458;49.002;8.472;2023-02-13T17:32:56;38.72;;;29.38;;
14734;SDS011;7458;49.002;8.472;2023-02-13T17:35:32;44.83;;;29.92;;
14734;SDS011;7458;49.002;8.472;2023-02-13T17:37:59;44.30;;;31.88;;
14734;SDS011;7458;49.002;8.472;2023-02-13T17:40:25;40.03;;;28.38;;
14734;SDS011;7458;49.002;8.472;2023-02-13T17:42:53;39.30;;;31.35;;
14734;SDS011;7458;49.002;8.472;2023-02-13T17:45:25;37.35;;;29.83;;
14734;SDS011;7458;49.002;8.472;2023-02-13T17:47:53;42.05;;;33.08;;
14734;SDS011;7458;49.002;8.472;2023-02-13T17:50:21;44.08;;;33.78;;
14734;SDS011;7458;49.002;8.472;2023-02-13T17:52:49;41.83;;;32.83;;
14734;SDS011;7458;49.002;8.472;2023-02-13T17:55:17;49.95;;;36.70;;
14734;SDS011;7458;49.002;8.472;2023-02-13T17:57:53;53.80;;;38.70;;
14734;SDS011;7458;49.002;8.472;2023-02-13T18:00:20;47.47;;;36.47;;
14734;SDS011;7458;49.002;8.472;2023-02-13T18:02:49;69.43;;;47.88;;
14734;SDS011;7458;49.002;8.472;2023-02-13T18:05:15;52.13;;;40.20;;
14734;SDS011;7458;49.002;8.472;2023-02-13T18:07:43;54.53;;;40.45;;
14734;SDS011;7458;49.002;8.472;2023-02-13T18:10:15;52.20;;;39.85;;
14734;SDS011;7458;49.002;8.472;2023-02-13T18:12:49;46.63;;;36.33;;
14734;SDS011;7458;49.002;8.472;2023-02-13T18:15:17;54.55;;;37.88;;
14734;SDS011;7458;49.002;8.472;2023-02-13T18:17:44;41.72;;;35.72;;